Main page
METAR-TAF:

METAR-TAF

Airports :

Guernsey Airport

Guernsey,

latitude: 49-26N, longitude: 002-36W, elevation: 102 m

Current weather observation

The report was made 36 minutes ago, at 19:20 UTC
Wind 13 kt from the West/Southwest
Temperature 8°C
Humidity 87%
Pressure 1027 hPa
Visibility 10 km or more
Few clouds at a height of 1200 ft
Scattered clouds at a height of 3000 ft

METAR: EGJB 291920Z 25013KT 9999 FEW012 SCT030 08/06 Q1027

Time: 19:56 (19:56 UTC)

Forecast

The report was made 2 hours and 58 minutes ago, at 16:58 UTC
Forecast valid from 29 at 18 UTC to 30 at 03 UTC
Wind 11 kt from the West
Visibility 10 km or more
Few clouds at a height of 1600 ft
Probability 30% :
Temporary
from 29 at 18 UTC to 29 at 20 UTC
Broken clouds at a height of 1400 ft
Probability 40% :
Temporary
from 29 at 20 UTC to 30 at 03 UTC
Visibility: 8000 m
Broken clouds at a height of 900 ft
light rain

TAF: EGJB 291658Z 2918/3003 27011KT 9999 FEW016 PROB30 TEMPO 2918/2920 BKN014 PROB40 TEMPO 2920/3003 8000 -RA BKN009

Weather observations and forecasts of more than 4000 airports (METAR and TAF reports).

The available stations are represented by yellow and red dots on the map.

Hover mouse over dot to see the name of the station.

Then click to see weather observations and forecasts.

To change the map : click on the green buttons with a black cross to zoom in, on the green button with a dash to zoom out, or on the green arrows for adjacent maps.


METAR-TAF: